sensor_id;sensor_type;location;lat;lon;timestamp;temperature;humidity
34492;DHT22;20737;49.908;8.126;2022-07-18T00:01:48;16.20;92.40
34492;DHT22;20737;49.908;8.126;2022-07-18T00:04:15;16.10;92.60
34492;DHT22;20737;49.908;8.126;2022-07-18T00:06:42;16.10;92.60
34492;DHT22;20737;49.908;8.126;2022-07-18T00:09:08;16.10;93.40
34492;DHT22;20737;49.908;8.126;2022-07-18T00:11:35;16.00;93.90
34492;DHT22;20737;49.908;8.126;2022-07-18T00:14:02;16.00;94.80
34492;DHT22;20737;49.908;8.126;2022-07-18T00:16:30;15.90;95.20
34492;DHT22;20737;49.908;8.126;2022-07-18T00:18:57;15.80;95.80
34492;DHT22;20737;49.908;8.126;2022-07-18T00:21:25;15.70;95.40
34492;DHT22;20737;49.908;8.126;2022-07-18T00:23:52;15.80;95.50
34492;DHT22;20737;49.908;8.126;2022-07-18T00:26:19;15.80;95.40
34492;DHT22;20737;49.908;8.126;2022-07-18T00:28:46;15.80;95.80
34492;DHT22;20737;49.908;8.126;2022-07-18T00:31:13;15.80;95.70
34492;DHT22;20737;49.908;8.126;2022-07-18T00:33:41;15.80;96.40
34492;DHT22;20737;49.908;8.126;2022-07-18T00:36:08;15.80;97.30
34492;DHT22;20737;49.908;8.126;2022-07-18T00:38:35;15.80;97.30
34492;DHT22;20737;49.908;8.126;2022-07-18T00:41:02;15.60;96.80
34492;DHT22;20737;49.908;8.126;2022-07-18T00:43:29;15.50;97.90
34492;DHT22;20737;49.908;8.126;2022-07-18T00:45:55;15.40;99.30
34492;DHT22;20737;49.908;8.126;2022-07-18T00:48:22;15.40;99.70
34492;DHT22;20737;49.908;8.126;2022-07-18T00:50:50;15.50;99.60
34492;DHT22;20737;49.908;8.126;2022-07-18T00:53:17;15.50;99.90
34492;DHT22;20737;49.908;8.126;2022-07-18T00:55:45;15.40;99.90
34492;DHT22;20737;49.908;8.126;2022-07-18T00:58:13;15.50;99.90
34492;DHT22;20737;49.908;8.126;2022-07-18T01:00:40;15.50;99.90
34492;DHT22;20737;49.908;8.126;2022-07-18T01:03:26;15.40;99.90
34492;DHT22;20737;49.908;8.126;2022-07-18T01:05:54;15.30;99.90
34492;DHT22;20737;49.908;8.126;2022-07-18T01:08:21;15.30;99.90
34492;DHT22;20737;49.908;8.126;2022-07-18T01:10:48;15.30;99.90
34492;DHT22;20737;49.908;8.126;2022-07-18T01:13:15;15.30;99.90
34492;DHT22;20737;49.908;8.126;2022-07-18T01:15:42;15.20;99.90
34492;DHT22;20737;49.908;8.126;2022-07-18T01:18:09;15.20;99.90
34492;DHT22;20737;49.908;8.126;2022-07-18T01:20:37;15.20;99.90
34492;DHT22;20737;49.908;8.126;2022-07-18T01:23:05;15.10;99.90
34492;DHT22;20737;49.908;8.126;2022-07-18T01:25:31;15.10;99.90
34492;DHT22;20737;49.908;8.126;2022-07-18T01:27:58;15.00;99.90
34492;DHT22;20737;49.908;8.126;2022-07-18T01:30:25;14.80;99.90
34492;DHT22;20737;49.908;8.126;2022-07-18T01:32:57;14.80;99.90
34492;DHT22;20737;49.908;8.126;2022-07-18T01:35:24;14.80;99.90
34492;DHT22;20737;49.908;8.126;2022-07-18T01:37:54;14.90;99.90
34492;DHT22;20737;49.908;8.126;2022-07-18T01:40:22;14.90;99.90
34492;DHT22;20737;49.908;8.126;2022-07-18T01:42:50;14.80;99.90
34492;DHT22;20737;49.908;8.126;2022-07-18T01:45:17;14.80;99.90
34492;DHT22;20737;49.908;8.126;2022-07-18T01:47:44;14.80;99.90
34492;DHT22;20737;49.908;8.126;2022-07-18T01:50:12;14.60;99.90
34492;DHT22;20737;49.908;8.126;2022-07-18T01:52:39;14.70;99.90
34492;DHT22;20737;49.908;8.126;2022-07-18T01:55:09;14.60;99.90
34492;DHT22;20737;49.908;8.126;2022-07-18T01:57:37;14.60;99.90
34492;DHT22;20737;49.908;8.126;2022-07-18T02:00:04;14.50;99.90
34492;DHT22;20737;49.908;8.126;2022-07-18T02:02:32;14.50;99.90
34492;DHT22;20737;49.908;8.126;2022-07-18T02:04:58;14.50;99.90
34492;DHT22;20737;49.908;8.126;2022-07-18T02:07:30;14.40;99.90
34492;DHT22;20737;49.908;8.126;2022-07-18T02:09:59;14.40;99.90
34492;DHT22;20737;49.908;8.126;2022-07-18T02:12:27;14.30;99.90
34492;DHT22;20737;49.908;8.126;2022-07-18T02:14:54;14.30;99.90
34492;DHT22;20737;49.908;8.126;2022-07-18T02:17:21;14.40;99.90
34492;DHT22;20737;49.908;8.126;2022-07-18T02:19:48;14.50;99.90
34492;DHT22;20737;49.908;8.126;2022-07-18T02:22:15;14.50;99.90
34492;DHT22;20737;49.908;8.126;2022-07-18T02:24:42;14.50;99.90
34492;DHT22;20737;49.908;8.126;2022-07-18T02:27:09;14.40;99.90
34492;DHT22;20737;49.908;8.126;2022-07-18T02:29:37;14.30;99.90
34492;DHT22;20737;49.908;8.126;2022-07-18T02:32:05;14.30;99.90
34492;DHT22;20737;49.908;8.126;2022-07-18T02:34:32;14.30;99.90
34492;DHT22;20737;49.908;8.126;2022-07-18T02:36:58;14.20;99.90
34492;DHT22;20737;49.908;8.126;2022-07-18T02:39:25;14.20;99.90
34492;DHT22;20737;49.908;8.126;2022-07-18T02:41:52;14.10;99.90
34492;DHT22;20737;49.908;8.126;2022-07-18T02:44:19;14.10;99.90
34492;DHT22;20737;49.908;8.126;2022-07-18T02:46:47;14.00;99.90
34492;DHT22;20737;49.908;8.126;2022-07-18T02:49:14;14.00;99.90
34492;DHT22;20737;49.908;8.126;2022-07-18T02:51:54;13.90;99.90
34492;DHT22;20737;49.908;8.126;2022-07-18T02:54:22;13.80;99.90
34492;DHT22;20737;49.908;8.126;2022-07-18T02:56:49;13.90;99.90
34492;DHT22;20737;49.908;8.126;2022-07-18T02:59:16;13.90;99.90
34492;DHT22;20737;49.908;8.126;2022-07-18T03:01:43;13.90;99.90
34492;DHT22;20737;49.908;8.126;2022-07-18T03:04:11;13.80;99.90
34492;DHT22;20737;49.908;8.126;2022-07-18T03:06:38;13.70;99.90
34492;DHT22;20737;49.908;8.126;2022-07-18T03:09:05;13.70;99.90
34492;DHT22;20737;49.908;8.126;2022-07-18T03:11:32;13.70;99.90
34492;DHT22;20737;49.908;8.126;2022-07-18T03:13:59;13.70;99.90
34492;DHT22;20737;49.908;8.126;2022-07-18T03:16:25;13.70;99.90
34492;DHT22;20737;49.908;8.126;2022-07-18T03:18:52;13.60;99.90
34492;DHT22;20737;49.908;8.126;2022-07-18T03:21:21;13.50;99.90
34492;DHT22;20737;49.908;8.126;2022-07-18T03:23:48;13.60;99.90
34492;DHT22;20737;49.908;8.126;2022-07-18T03:26:14;13.60;99.90
34492;DHT22;20737;49.908;8.126;2022-07-18T03:28:41;13.60;99.90
34492;DHT22;20737;49.908;8.126;2022-07-18T03:31:08;13.60;99.90
34492;DHT22;20737;49.908;8.126;2022-07-18T03:33:35;13.50;99.90
34492;DHT22;20737;49.908;8.126;2022-07-18T03:36:02;13.50;99.90
34492;DHT22;20737;49.908;8.126;2022-07-18T03:38:30;13.30;99.90
34492;DHT22;20737;49.908;8.126;2022-07-18T03:40:57;13.20;99.90
34492;DHT22;20737;49.908;8.126;2022-07-18T03:43:23;13.10;99.90
34492;DHT22;20737;49.908;8.126;2022-07-18T03:45:50;13.20;99.90
34492;DHT22;20737;49.908;8.126;2022-07-18T03:48:17;13.20;99.90
34492;DHT22;20737;49.908;8.126;2022-07-18T03:50:44;13.40;99.90
34492;DHT22;20737;49.908;8.126;2022-07-18T03:53:10;13.40;99.90
34492;DHT22;20737;49.908;8.126;2022-07-18T03:55:39;13.50;99.90
34492;DHT22;20737;49.908;8.126;2022-07-18T03:58:05;13.50;99.90
34492;DHT22;20737;49.908;8.126;2022-07-18T04:00:32;13.50;99.90
34492;DHT22;20737;49.908;8.126;2022-07-18T04:03:02;13.50;99.90
34492;DHT22;20737;49.908;8.126;2022-07-18T04:05:29;13.60;99.90
34492;DHT22;20737;49.908;8.126;2022-07-18T04:07:56;13.60;99.90
34492;DHT22;20737;49.908;8.126;2022-07-18T04:10:23;13.70;99.90
34492;DHT22;20737;49.908;8.126;2022-07-18T04:12:53;13.60;99.90
34492;DHT22;20737;49.908;8.126;2022-07-18T04:15:22;13.60;99.90
34492;DHT22;20737;49.908;8.126;2022-07-18T04:17:49;13.60;99.90
34492;DHT22;20737;49.908;8.126;2022-07-18T04:20:17;13.60;99.90
34492;DHT22;20737;49.908;8.126;2022-07-18T04:22:45;13.60;99.90
34492;DHT22;20737;49.908;8.126;2022-07-18T04:25:12;13.60;99.90
34492;DHT22;20737;49.908;8.126;2022-07-18T04:27:39;13.60;99.90
34492;DHT22;20737;49.908;8.126;2022-07-18T04:30:08;13.70;99.90
34492;DHT22;20737;49.908;8.126;2022-07-18T04:32:36;13.80;99.90
34492;DHT22;20737;49.908;8.126;2022-07-18T04:35:03;13.90;99.90
34492;DHT22;20737;49.908;8.126;2022-07-18T04:37:30;14.00;99.90
34492;DHT22;20737;49.908;8.126;2022-07-18T04:39:57;14.10;99.90
34492;DHT22;20737;49.908;8.126;2022-07-18T04:42:24;14.20;99.90
34492;DHT22;20737;49.908;8.126;2022-07-18T04:44:51;14.30;99.90
34492;DHT22;20737;49.908;8.126;2022-07-18T04:47:19;14.40;99.90
34492;DHT22;20737;49.908;8.126;2022-07-18T04:49:46;14.50;99.90
34492;DHT22;20737;49.908;8.126;2022-07-18T04:52:13;14.60;99.90
34492;DHT22;20737;49.908;8.126;2022-07-18T04:54:40;14.60;99.90
34492;DHT22;20737;49.908;8.126;2022-07-18T04:57:06;14.60;99.90
34492;DHT22;20737;49.908;8.126;2022-07-18T04:59:34;14.80;99.90
34492;DHT22;20737;49.908;8.126;2022-07-18T05:02:01;15.00;99.90
34492;DHT22;20737;49.908;8.126;2022-07-18T05:04:29;15.10;99.90
34492;DHT22;20737;49.908;8.126;2022-07-18T05:06:56;15.20;99.90
34492;DHT22;20737;49.908;8.126;2022-07-18T05:09:23;15.30;99.90
34492;DHT22;20737;49.908;8.126;2022-07-18T05:11:49;15.30;99.90
34492;DHT22;20737;49.908;8.126;2022-07-18T05:14:16;15.50;99.90
34492;DHT22;20737;49.908;8.126;2022-07-18T05:16:43;15.60;99.90
34492;DHT22;20737;49.908;8.126;2022-07-18T05:19:10;15.80;99.90
34492;DHT22;20737;49.908;8.126;2022-07-18T05:21:38;15.90;99.90
34492;DHT22;20737;49.908;8.126;2022-07-18T05:24:05;16.10;99.90
34492;DHT22;20737;49.908;8.126;2022-07-18T05:26:32;16.10;99.90
34492;DHT22;20737;49.908;8.126;2022-07-18T05:28:59;16.20;99.90
34492;DHT22;20737;49.908;8.126;2022-07-18T05:31:26;16.40;99.90
34492;DHT22;20737;49.908;8.126;2022-07-18T05:33:53;16.40;99.90
34492;DHT22;20737;49.908;8.126;2022-07-18T05:36:20;16.40;99.90
34492;DHT22;20737;49.908;8.126;2022-07-18T05:38:48;16.50;99.90
34492;DHT22;20737;49.908;8.126;2022-07-18T05:41:15;16.80;99.90
34492;DHT22;20737;49.908;8.126;2022-07-18T05:43:41;16.90;99.90
34492;DHT22;20737;49.908;8.126;2022-07-18T05:46:09;17.10;99.90
34492;DHT22;20737;49.908;8.126;2022-07-18T05:48:36;17.30;99.90
34492;DHT22;20737;49.908;8.126;2022-07-18T05:51:03;17.40;99.90
34492;DHT22;20737;49.908;8.126;2022-07-18T05:53:30;17.40;99.90
34492;DHT22;20737;49.908;8.126;2022-07-18T05:55:58;17.50;99.90
34492;DHT22;20737;49.908;8.126;2022-07-18T05:58:25;17.70;99.90
34492;DHT22;20737;49.908;8.126;2022-07-18T06:00:52;17.80;99.90
34492;DHT22;20737;49.908;8.126;2022-07-18T06:03:19;18.00;99.90
34492;DHT22;20737;49.908;8.126;2022-07-18T06:05:46;18.30;99.90
34492;DHT22;20737;49.908;8.126;2022-07-18T06:08:13;18.40;99.90
34492;DHT22;20737;49.908;8.126;2022-07-18T06:10:40;18.60;99.90
34492;DHT22;20737;49.908;8.126;2022-07-18T06:13:09;18.80;99.90
34492;DHT22;20737;49.908;8.126;2022-07-18T06:15:36;19.00;99.90
34492;DHT22;20737;49.908;8.126;2022-07-18T06:18:03;19.20;99.90
34492;DHT22;20737;49.908;8.126;2022-07-18T06:20:32;19.50;99.90
34492;DHT22;20737;49.908;8.126;2022-07-18T06:22:58;19.60;99.90
34492;DHT22;20737;49.908;8.126;2022-07-18T06:25:25;20.00;99.90
34492;DHT22;20737;49.908;8.126;2022-07-18T06:27:52;20.20;99.90
34492;DHT22;20737;49.908;8.126;2022-07-18T06:30:20;20.40;99.90
34492;DHT22;20737;49.908;8.126;2022-07-18T06:32:48;21.10;99.90
34492;DHT22;20737;49.908;8.126;2022-07-18T06:35:15;21.90;97.80
34492;DHT22;20737;49.908;8.126;2022-07-18T06:37:42;22.40;95.00
34492;DHT22;20737;49.908;8.126;2022-07-18T06:40:10;22.90;93.80
34492;DHT22;20737;49.908;8.126;2022-07-18T06:42:36;23.70;89.20
34492;DHT22;20737;49.908;8.126;2022-07-18T06:45:04;24.30;82.00
34492;DHT22;20737;49.908;8.126;2022-07-18T06:47:33;24.90;81.20
34492;DHT22;20737;49.908;8.126;2022-07-18T06:49:59;25.30;75.10
34492;DHT22;20737;49.908;8.126;2022-07-18T06:52:26;26.10;70.20
34492;DHT22;20737;49.908;8.126;2022-07-18T06:54:53;26.40;65.00
34492;DHT22;20737;49.908;8.126;2022-07-18T06:57:20;27.00;63.80
34492;DHT22;20737;49.908;8.126;2022-07-18T06:59:46;27.30;62.70
34492;DHT22;20737;49.908;8.126;2022-07-18T07:02:13;27.90;62.20
34492;DHT22;20737;49.908;8.126;2022-07-18T07:04:41;27.90;56.40
34492;DHT22;20737;49.908;8.126;2022-07-18T07:07:08;28.40;55.30
34492;DHT22;20737;49.908;8.126;2022-07-18T07:09:40;29.40;54.40
34492;DHT22;20737;49.908;8.126;2022-07-18T07:12:06;29.80;51.70
34492;DHT22;20737;49.908;8.126;2022-07-18T07:14:35;30.10;49.10
34492;DHT22;20737;49.908;8.126;2022-07-18T07:17:02;30.30;47.70
34492;DHT22;20737;49.908;8.126;2022-07-18T07:19:29;30.70;46.40
34492;DHT22;20737;49.908;8.126;2022-07-18T07:21:57;31.50;44.80
34492;DHT22;20737;49.908;8.126;2022-07-18T07:24:24;31.10;47.10
34492;DHT22;20737;49.908;8.126;2022-07-18T07:26:51;31.30;44.10
34492;DHT22;20737;49.908;8.126;2022-07-18T07:29:18;31.10;43.20
34492;DHT22;20737;49.908;8.126;2022-07-18T07:31:45;31.40;44.10
34492;DHT22;20737;49.908;8.126;2022-07-18T07:34:11;31.40;43.00
34492;DHT22;20737;49.908;8.126;2022-07-18T07:36:40;31.70;42.60
34492;DHT22;20737;49.908;8.126;2022-07-18T07:39:08;32.60;40.70
34492;DHT22;20737;49.908;8.126;2022-07-18T07:41:34;33.00;39.40
34492;DHT22;20737;49.908;8.126;2022-07-18T07:44:01;32.80;39.90
34492;DHT22;20737;49.908;8.126;2022-07-18T07:46:28;33.10;37.70
34492;DHT22;20737;49.908;8.126;2022-07-18T07:48:55;33.30;37.20
34492;DHT22;20737;49.908;8.126;2022-07-18T07:51:21;33.90;37.10
34492;DHT22;20737;49.908;8.126;2022-07-18T07:53:48;34.10;36.40
34492;DHT22;20737;49.908;8.126;2022-07-18T07:56:16;34.60;34.70
34492;DHT22;20737;49.908;8.126;2022-07-18T07:58:45;34.40;36.20
34492;DHT22;20737;49.908;8.126;2022-07-18T08:01:12;34.40;36.30
34492;DHT22;20737;49.908;8.126;2022-07-18T08:03:40;34.50;35.20
34492;DHT22;20737;49.908;8.126;2022-07-18T08:06:07;34.70;36.50
34492;DHT22;20737;49.908;8.126;2022-07-18T08:08:34;34.70;35.50
34492;DHT22;20737;49.908;8.126;2022-07-18T08:11:01;34.70;34.00
34492;DHT22;20737;49.908;8.126;2022-07-18T08:13:29;34.70;36.80
34492;DHT22;20737;49.908;8.126;2022-07-18T08:15:57;34.60;34.20
34492;DHT22;20737;49.908;8.126;2022-07-18T08:18:26;34.40;35.90
34492;DHT22;20737;49.908;8.126;2022-07-18T08:20:52;33.80;37.00
34492;DHT22;20737;49.908;8.126;2022-07-18T08:23:20;33.60;37.00
34492;DHT22;20737;49.908;8.126;2022-07-18T08:25:47;33.20;36.70
34492;DHT22;20737;49.908;8.126;2022-07-18T08:28:14;32.80;37.90
34492;DHT22;20737;49.908;8.126;2022-07-18T08:30:42;32.30;41.90
34492;DHT22;20737;49.908;8.126;2022-07-18T08:33:09;32.00;40.70
34492;DHT22;20737;49.908;8.126;2022-07-18T08:35:36;31.80;39.90
34492;DHT22;20737;49.908;8.126;2022-07-18T08:38:04;31.60;40.50
34492;DHT22;20737;49.908;8.126;2022-07-18T08:40:30;31.30;40.90
34492;DHT22;20737;49.908;8.126;2022-07-18T08:42:58;31.50;40.50
34492;DHT22;20737;49.908;8.126;2022-07-18T08:45:25;31.40;40.20
34492;DHT22;20737;49.908;8.126;2022-07-18T08:47:53;31.20;39.30
34492;DHT22;20737;49.908;8.126;2022-07-18T08:50:21;31.50;41.00
34492;DHT22;20737;49.908;8.126;2022-07-18T08:52:48;31.60;41.40
34492;DHT22;20737;49.908;8.126;2022-07-18T08:55:16;32.20;41.00
34492;DHT22;20737;49.908;8.126;2022-07-18T08:57:42;32.50;39.10
34492;DHT22;20737;49.908;8.126;2022-07-18T09:00:10;33.20;38.00
34492;DHT22;20737;49.908;8.126;2022-07-18T09:02:37;33.30;36.80
34492;DHT22;20737;49.908;8.126;2022-07-18T09:05:16;33.40;35.70
34492;DHT22;20737;49.908;8.126;2022-07-18T09:07:43;33.60;37.00
34492;DHT22;20737;49.908;8.126;2022-07-18T09:10:10;34.30;36.70
34492;DHT22;20737;49.908;8.126;2022-07-18T09:12:37;34.70;33.60
34492;DHT22;20737;49.908;8.126;2022-07-18T09:15:05;34.90;35.00
34492;DHT22;20737;49.908;8.126;2022-07-18T09:17:34;35.80;33.20
34492;DHT22;20737;49.908;8.126;2022-07-18T09:20:04;36.00;34.20
34492;DHT22;20737;49.908;8.126;2022-07-18T09:22:35;36.30;32.40
34492;DHT22;20737;49.908;8.126;2022-07-18T09:25:06;36.60;31.60
34492;DHT22;20737;49.908;8.126;2022-07-18T09:27:36;37.00;31.60
34492;DHT22;20737;49.908;8.126;2022-07-18T09:30:20;37.70;31.40
34492;DHT22;20737;49.908;8.126;2022-07-18T09:32:49;37.10;32.60
34492;DHT22;20737;49.908;8.126;2022-07-18T09:35:19;37.00;30.80
34492;DHT22;20737;49.908;8.126;2022-07-18T09:37:56;37.40;31.80
34492;DHT22;20737;49.908;8.126;2022-07-18T09:40:24;37.60;31.00
34492;DHT22;20737;49.908;8.126;2022-07-18T09:42:53;37.50;31.70
34492;DHT22;20737;49.908;8.126;2022-07-18T09:45:24;38.40;31.10
34492;DHT22;20737;49.908;8.126;2022-07-18T09:47:54;38.70;27.90
34492;DHT22;20737;49.908;8.126;2022-07-18T09:50:30;38.30;28.40
34492;DHT22;20737;49.908;8.126;2022-07-18T09:53:08;38.00;28.90
34492;DHT22;20737;49.908;8.126;2022-07-18T09:55:41;38.20;29.10
34492;DHT22;20737;49.908;8.126;2022-07-18T09:58:08;38.70;28.00
34492;DHT22;20737;49.908;8.126;2022-07-18T10:00:37;39.10;28.60
34492;DHT22;20737;49.908;8.126;2022-07-18T10:03:06;39.50;25.20
34492;DHT22;20737;49.908;8.126;2022-07-18T10:05:35;38.90;27.40
34492;DHT22;20737;49.908;8.126;2022-07-18T10:08:06;39.40;25.80
34492;DHT22;20737;49.908;8.126;2022-07-18T10:10:34;39.00;26.00
34492;DHT22;20737;49.908;8.126;2022-07-18T10:13:02;39.60;26.20
34492;DHT22;20737;49.908;8.126;2022-07-18T10:15:30;40.10;25.50
34492;DHT22;20737;49.908;8.126;2022-07-18T10:17:58;40.30;25.90
34492;DHT22;20737;49.908;8.126;2022-07-18T10:20:31;40.40;26.10
34492;DHT22;20737;49.908;8.126;2022-07-18T10:25:43;40.30;25.60
34492;DHT22;20737;49.908;8.126;2022-07-18T10:28:12;40.70;25.20
34492;DHT22;20737;49.908;8.126;2022-07-18T10:30:43;40.00;24.80
34492;DHT22;20737;49.908;8.126;2022-07-18T10:33:43;40.20;25.90
34492;DHT22;20737;49.908;8.126;2022-07-18T10:36:13;40.60;26.30
34492;DHT22;20737;49.908;8.126;2022-07-18T10:39:05;40.60;24.80
34492;DHT22;20737;49.908;8.126;2022-07-18T10:44:38;40.50;25.20
34492;DHT22;20737;49.908;8.126;2022-07-18T10:47:07;41.00;26.50
34492;DHT22;20737;49.908;8.126;2022-07-18T10:50:00;40.90;24.70
34492;DHT22;20737;49.908;8.126;2022-07-18T10:52:58;39.50;25.40
34492;DHT22;20737;49.908;8.126;2022-07-18T10:55:30;39.70;25.80
34492;DHT22;20737;49.908;8.126;2022-07-18T10:58:18;39.90;26.00
34492;DHT22;20737;49.908;8.126;2022-07-18T11:00:48;40.10;26.10
34492;DHT22;20737;49.908;8.126;2022-07-18T11:03:16;40.10;25.30
34492;DHT22;20737;49.908;8.126;2022-07-18T11:05:45;40.50;24.80
34492;DHT22;20737;49.908;8.126;2022-07-18T11:08:17;40.70;25.50
34492;DHT22;20737;49.908;8.126;2022-07-18T11:11:03;40.70;24.90
34492;DHT22;20737;49.908;8.126;2022-07-18T11:13:34;40.40;26.20
34492;DHT22;20737;49.908;8.126;2022-07-18T11:16:02;40.60;25.20
34492;DHT22;20737;49.908;8.126;2022-07-18T11:18:32;40.20;25.70
34492;DHT22;20737;49.908;8.126;2022-07-18T11:20:58;40.30;25.50
34492;DHT22;20737;49.908;8.126;2022-07-18T11:23:27;40.10;26.20
34492;DHT22;20737;49.908;8.126;2022-07-18T11:25:55;40.30;25.20
34492;DHT22;20737;49.908;8.126;2022-07-18T11:28:24;40.50;26.20
34492;DHT22;20737;49.908;8.126;2022-07-18T11:31:04;41.00;25.60
34492;DHT22;20737;49.908;8.126;2022-07-18T11:33:33;41.10;24.90
34492;DHT22;20737;49.908;8.126;2022-07-18T11:36:04;41.10;25.30
34492;DHT22;20737;49.908;8.126;2022-07-18T11:38:31;40.70;25.80
34492;DHT22;20737;49.908;8.126;2022-07-18T11:40:58;41.10;26.20
34492;DHT22;20737;49.908;8.126;2022-07-18T11:43:26;41.10;26.50
34492;DHT22;20737;49.908;8.126;2022-07-18T11:46:03;40.80;24.70
34492;DHT22;20737;49.908;8.126;2022-07-18T11:48:30;40.40;25.40
34492;DHT22;20737;49.908;8.126;2022-07-18T11:50:57;40.40;25.60
34492;DHT22;20737;49.908;8.126;2022-07-18T11:53:24;40.70;26.30
34492;DHT22;20737;49.908;8.126;2022-07-18T11:55:52;40.10;25.30
34492;DHT22;20737;49.908;8.126;2022-07-18T11:58:19;40.10;25.40
34492;DHT22;20737;49.908;8.126;2022-07-18T12:00:47;40.00;26.00
34492;DHT22;20737;49.908;8.126;2022-07-18T12:03:17;40.00;24.50
34492;DHT22;20737;49.908;8.126;2022-07-18T12:05:45;39.70;24.90
34492;DHT22;20737;49.908;8.126;2022-07-18T12:08:34;39.90;26.40
34492;DHT22;20737;49.908;8.126;2022-07-18T12:11:06;40.40;25.00
34492;DHT22;20737;49.908;8.126;2022-07-18T12:13:58;39.80;24.60
34492;DHT22;20737;49.908;8.126;2022-07-18T12:16:27;39.40;26.00
34492;DHT22;20737;49.908;8.126;2022-07-18T12:18:57;39.60;24.80
34492;DHT22;20737;49.908;8.126;2022-07-18T12:21:24;39.60;25.10
34492;DHT22;20737;49.908;8.126;2022-07-18T12:24:26;39.10;26.20
34492;DHT22;20737;49.908;8.126;2022-07-18T12:27:24;39.20;26.80
34492;DHT22;20737;49.908;8.126;2022-07-18T12:30:08;39.50;25.10
34492;DHT22;20737;49.908;8.126;2022-07-18T12:32:39;39.00;26.30
34492;DHT22;20737;49.908;8.126;2022-07-18T12:35:09;38.60;25.70
34492;DHT22;20737;49.908;8.126;2022-07-18T12:37:36;38.30;25.70
34492;DHT22;20737;49.908;8.126;2022-07-18T12:40:05;38.20;26.50
34492;DHT22;20737;49.908;8.126;2022-07-18T12:42:33;38.50;26.90
34492;DHT22;20737;49.908;8.126;2022-07-18T12:45:01;38.70;27.40
34492;DHT22;20737;49.908;8.126;2022-07-18T12:47:27;38.70;27.60
34492;DHT22;20737;49.908;8.126;2022-07-18T12:49:56;38.20;25.50
34492;DHT22;20737;49.908;8.126;2022-07-18T12:52:24;38.10;27.60
34492;DHT22;20737;49.908;8.126;2022-07-18T12:54:51;38.30;27.80
34492;DHT22;20737;49.908;8.126;2022-07-18T12:57:19;38.20;26.10
34492;DHT22;20737;49.908;8.126;2022-07-18T12:59:46;37.90;26.70
34492;DHT22;20737;49.908;8.126;2022-07-18T13:02:14;37.60;26.70
34492;DHT22;20737;49.908;8.126;2022-07-18T13:04:42;37.30;26.50
34492;DHT22;20737;49.908;8.126;2022-07-18T13:07:09;37.40;27.50
34492;DHT22;20737;49.908;8.126;2022-07-18T13:09:37;37.80;27.90
34492;DHT22;20737;49.908;8.126;2022-07-18T13:12:04;38.20;27.30
34492;DHT22;20737;49.908;8.126;2022-07-18T13:14:32;38.00;26.50
34492;DHT22;20737;49.908;8.126;2022-07-18T13:16:59;37.90;26.70
34492;DHT22;20737;49.908;8.126;2022-07-18T13:19:26;37.60;27.20
34492;DHT22;20737;49.908;8.126;2022-07-18T13:21:54;37.80;28.40
34492;DHT22;20737;49.908;8.126;2022-07-18T13:24:20;37.90;27.60
34492;DHT22;20737;49.908;8.126;2022-07-18T13:26:48;38.00;26.00
34492;DHT22;20737;49.908;8.126;2022-07-18T13:29:15;38.10;26.60
34492;DHT22;20737;49.908;8.126;2022-07-18T13:31:43;37.80;26.90
34492;DHT22;20737;49.908;8.126;2022-07-18T13:34:09;37.70;27.20
34492;DHT22;20737;49.908;8.126;2022-07-18T13:36:37;37.70;26.60
34492;DHT22;20737;49.908;8.126;2022-07-18T13:39:03;37.70;26.60
34492;DHT22;20737;49.908;8.126;2022-07-18T13:41:30;37.90;27.60
34492;DHT22;20737;49.908;8.126;2022-07-18T13:43:58;37.60;26.90
34492;DHT22;20737;49.908;8.126;2022-07-18T13:46:25;37.10;26.60
34492;DHT22;20737;49.908;8.126;2022-07-18T13:48:52;37.40;27.00
34492;DHT22;20737;49.908;8.126;2022-07-18T13:51:19;37.50;26.70
34492;DHT22;20737;49.908;8.126;2022-07-18T13:53:46;37.50;26.30
34492;DHT22;20737;49.908;8.126;2022-07-18T13:56:12;37.10;27.00
34492;DHT22;20737;49.908;8.126;2022-07-18T13:58:39;36.90;27.60
34492;DHT22;20737;49.908;8.126;2022-07-18T14:01:09;37.10;28.00
34492;DHT22;20737;49.908;8.126;2022-07-18T14:03:38;37.40;27.40
34492;DHT22;20737;49.908;8.126;2022-07-18T14:06:05;37.40;27.20
34492;DHT22;20737;49.908;8.126;2022-07-18T14:08:32;37.40;27.40
34492;DHT22;20737;49.908;8.126;2022-07-18T14:10:58;37.50;27.00
34492;DHT22;20737;49.908;8.126;2022-07-18T14:13:25;37.10;27.00
34492;DHT22;20737;49.908;8.126;2022-07-18T14:15:52;37.40;28.00
34492;DHT22;20737;49.908;8.126;2022-07-18T14:18:20;37.50;27.00
34492;DHT22;20737;49.908;8.126;2022-07-18T14:20:47;37.50;27.10
34492;DHT22;20737;49.908;8.126;2022-07-18T14:23:14;37.40;26.70
34492;DHT22;20737;49.908;8.126;2022-07-18T14:25:41;37.40;27.80
34492;DHT22;20737;49.908;8.126;2022-07-18T14:28:07;37.50;28.00
34492;DHT22;20737;49.908;8.126;2022-07-18T14:30:34;37.60;27.90
34492;DHT22;20737;49.908;8.126;2022-07-18T14:33:01;37.20;27.20
34492;DHT22;20737;49.908;8.126;2022-07-18T14:35:29;36.90;27.40
34492;DHT22;20737;49.908;8.126;2022-07-18T14:37:56;36.80;28.50
34492;DHT22;20737;49.908;8.126;2022-07-18T14:40:23;37.00;27.10
34492;DHT22;20737;49.908;8.126;2022-07-18T14:42:50;36.70;26.60
34492;DHT22;20737;49.908;8.126;2022-07-18T14:45:17;36.30;27.50
34492;DHT22;20737;49.908;8.126;2022-07-18T14:47:44;36.40;28.90
34492;DHT22;20737;49.908;8.126;2022-07-18T14:50:11;36.60;27.50
34492;DHT22;20737;49.908;8.126;2022-07-18T14:52:39;36.50;27.40
34492;DHT22;20737;49.908;8.126;2022-07-18T14:55:07;36.30;27.60
34492;DHT22;20737;49.908;8.126;2022-07-18T14:57:35;36.10;27.70
34492;DHT22;20737;49.908;8.126;2022-07-18T15:00:04;36.30;27.90
34492;DHT22;20737;49.908;8.126;2022-07-18T15:02:31;36.20;28.30
34492;DHT22;20737;49.908;8.126;2022-07-18T15:04:58;36.30;28.70
34492;DHT22;20737;49.908;8.126;2022-07-18T15:07:25;36.40;28.60
34492;DHT22;20737;49.908;8.126;2022-07-18T15:09:53;36.40;27.80
34492;DHT22;20737;49.908;8.126;2022-07-18T15:12:20;36.40;27.10
34492;DHT22;20737;49.908;8.126;2022-07-18T15:14:47;36.30;28.00
34492;DHT22;20737;49.908;8.126;2022-07-18T15:17:14;36.40;28.50
34492;DHT22;20737;49.908;8.126;2022-07-18T15:19:41;36.30;28.20
34492;DHT22;20737;49.908;8.126;2022-07-18T15:22:08;36.10;28.50
34492;DHT22;20737;49.908;8.126;2022-07-18T15:24:34;35.90;27.40
34492;DHT22;20737;49.908;8.126;2022-07-18T15:27:03;35.80;27.40
34492;DHT22;20737;49.908;8.126;2022-07-18T15:29:30;35.70;27.90
34492;DHT22;20737;49.908;8.126;2022-07-18T15:31:57;35.60;28.00
34492;DHT22;20737;49.908;8.126;2022-07-18T15:34:24;35.50;27.30
34492;DHT22;20737;49.908;8.126;2022-07-18T15:36:51;35.60;28.60
34492;DHT22;20737;49.908;8.126;2022-07-18T15:39:18;35.70;27.60
34492;DHT22;20737;49.908;8.126;2022-07-18T15:41:45;35.50;27.80
34492;DHT22;20737;49.908;8.126;2022-07-18T15:44:13;35.50;29.40